createdAt,value
2023-04-28T00:00:58.227Z,10.36
2023-04-28T00:03:26.987Z,10.50
2023-04-28T00:05:55.367Z,10.44
2023-04-28T00:08:27.840Z,10.34
2023-04-28T00:10:56.415Z,10.34
2023-04-28T00:13:24.658Z,10.25
2023-04-28T00:15:56.702Z,10.41
2023-04-28T00:18:25.244Z,10.44
2023-04-28T00:20:53.464Z,10.32
2023-04-28T00:23:21.771Z,10.39
2023-04-28T00:25:53.706Z,10.41
2023-04-28T00:28:33.698Z,10.34
2023-04-28T00:31:11.900Z,10.34
2023-04-28T00:33:46.712Z,10.23
2023-04-28T00:36:15.224Z,10.13
2023-04-28T00:38:43.139Z,10.30
2023-04-28T00:41:11.928Z,10.31
2023-04-28T00:43:50.235Z,10.26
2023-04-28T00:46:25.173Z,10.20
2023-04-28T00:48:53.857Z,10.04
2023-04-28T00:51:22.029Z,10.14
2023-04-28T00:53:51.776Z,10.15
2023-04-28T00:56:21.150Z,9.98
2023-04-28T00:59:01.324Z,10.08
2023-04-28T01:01:29.978Z,10.05
2023-04-28T01:03:58.629Z,10.12
2023-04-28T01:06:29.188Z,10.16
2023-04-28T01:08:58.788Z,9.69
2023-04-28T01:11:26.867Z,9.62
2023-04-28T01:14:19.827Z,9.50
2023-04-28T01:16:48.473Z,9.83
2023-04-28T01:19:30.070Z,9.92
2023-04-28T01:21:58.158Z,9.92
2023-04-28T01:24:27.197Z,9.85
2023-04-28T01:26:56.280Z,9.89
2023-04-28T01:29:24.384Z,9.87
2023-04-28T01:32:05.113Z,9.91
2023-04-28T01:34:34.384Z,9.88
2023-04-28T01:37:14.561Z,9.84
2023-04-28T01:39:42.571Z,9.87
2023-04-28T01:42:11.045Z,9.92
2023-04-28T01:44:39.185Z,9.84
2023-04-28T01:47:07.385Z,9.77
2023-04-28T01:50:00.735Z,9.89
2023-04-28T01:52:32.134Z,9.94
2023-04-28T01:55:00.827Z,9.96
2023-04-28T01:57:35.284Z,9.93
2023-04-28T02:00:05.398Z,9.72
2023-04-28T02:02:35.168Z,9.80
2023-04-28T02:05:03.864Z,9.71
2023-04-28T02:07:44.934Z,9.75
2023-04-28T02:10:26.113Z,9.87
2023-04-28T02:12:54.283Z,9.87
2023-04-28T02:15:54.152Z,9.87
2023-04-28T02:18:22.489Z,9.85
2023-04-28T02:21:03.200Z,9.76
2023-04-28T02:23:31.479Z,9.84
2023-04-28T02:26:04.143Z,9.87
2023-04-28T02:28:32.713Z,9.84
2023-04-28T02:31:09.267Z,9.91
2023-04-28T02:33:49.746Z,10.02
2023-04-28T02:36:42.701Z,9.94
2023-04-28T02:39:11.104Z,10.04
2023-04-28T02:41:54.226Z,10.17
2023-04-28T02:44:22.511Z,10.17
2023-04-28T02:46:50.719Z,10.17
2023-04-28T02:49:19.319Z,10.26
2023-04-28T02:51:47.368Z,10.43
2023-04-28T02:54:15.740Z,10.42
2023-04-28T02:56:44.437Z,10.35
2023-04-28T02:59:12.379Z,10.54
2023-04-28T03:01:40.328Z,10.65
2023-04-28T03:04:08.882Z,10.74
2023-04-28T03:06:37.034Z,10.85
2023-04-28T03:09:05.616Z,10.92
2023-04-28T03:11:35.000Z,10.86
2023-04-28T03:14:04.283Z,10.96
2023-04-28T03:16:32.708Z,11.01
2023-04-28T03:19:01.235Z,11.04
2023-04-28T03:21:29.331Z,10.98
2023-04-28T03:23:57.402Z,11.14
2023-04-28T03:26:25.802Z,11.20
2023-04-28T03:28:54.316Z,11.25
2023-04-28T03:31:23.207Z,11.29
2023-04-28T03:33:51.796Z,11.40
2023-04-28T03:36:20.357Z,11.44
2023-04-28T03:38:48.844Z,11.44
2023-04-28T03:41:17.186Z,11.55
2023-04-28T03:43:51.124Z,11.66
2023-04-28T03:46:20.802Z,11.74
2023-04-28T03:48:49.730Z,11.87
2023-04-28T03:51:19.782Z,12.05
2023-04-28T03:53:48.800Z,12.13
2023-04-28T03:56:20.340Z,12.30
2023-04-28T03:58:48.811Z,12.46
2023-04-28T04:01:18.134Z,12.55
2023-04-28T04:03:49.415Z,12.75
2023-04-28T04:06:19.190Z,12.89
2023-04-28T04:08:47.687Z,13.02
2023-04-28T04:11:17.099Z,13.13
2023-04-28T04:13:45.107Z,13.40
2023-04-28T04:16:16.390Z,13.70
2023-04-28T04:18:44.716Z,13.90
2023-04-28T04:21:15.656Z,13.95
2023-04-28T04:23:43.928Z,13.87
2023-04-28T04:26:36.921Z,14.03
2023-04-28T04:29:07.282Z,14.12
2023-04-28T04:31:38.718Z,14.12
2023-04-28T04:34:11.881Z,14.21
2023-04-28T04:36:40.587Z,14.41
2023-04-28T04:39:08.992Z,14.92
2023-04-28T04:41:49.317Z,15.43
2023-04-28T04:44:20.010Z,15.71
2023-04-28T04:46:49.017Z,16.09
2023-04-28T04:49:19.094Z,16.48
2023-04-28T04:51:47.478Z,17.00
2023-04-28T04:56:53.663Z,16.32
2023-04-28T04:59:24.096Z,15.98
2023-04-28T05:01:52.836Z,15.66
2023-04-28T05:04:21.490Z,15.43
2023-04-28T05:06:49.995Z,15.27
2023-04-28T05:09:18.556Z,15.14
2023-04-28T05:11:50.418Z,15.02
2023-04-28T05:14:19.168Z,15.17
2023-04-28T05:16:47.521Z,15.13
2023-04-28T05:19:16.733Z,14.86
2023-04-28T05:21:45.198Z,14.51
2023-04-28T05:24:13.204Z,14.65
2023-04-28T05:26:41.965Z,14.89
2023-04-28T05:29:10.831Z,14.59
2023-04-28T05:31:38.781Z,14.81
2023-04-28T05:34:06.760Z,14.79
2023-04-28T05:36:35.536Z,14.52
2023-04-28T05:39:03.831Z,14.73
2023-04-28T05:41:31.906Z,14.78
2023-04-28T05:44:00.754Z,15.06
2023-04-28T05:46:30.958Z,15.60
2023-04-28T05:48:59.705Z,15.76
2023-04-28T05:51:28.564Z,15.79
2023-04-28T05:53:57.140Z,16.10
2023-04-28T05:56:27.401Z,16.26
2023-04-28T05:58:56.704Z,16.32
2023-04-28T06:01:24.635Z,16.43
2023-04-28T06:03:54.240Z,16.39
2023-04-28T06:06:22.735Z,16.26
2023-04-28T06:08:51.101Z,16.31
2023-04-28T06:11:23.216Z,16.66
2023-04-28T06:13:51.942Z,16.94
2023-04-28T06:16:20.627Z,17.02
2023-04-28T06:18:49.798Z,17.23
2023-04-28T06:21:18.725Z,17.61
2023-04-28T06:23:47.457Z,17.59
2023-04-28T06:26:17.937Z,18.08
2023-04-28T06:28:46.651Z,18.33
2023-04-28T06:31:15.119Z,18.66
2023-04-28T06:33:43.359Z,18.71
2023-04-28T06:36:14.314Z,18.79
2023-04-28T06:38:44.222Z,18.82
2023-04-28T06:41:13.118Z,18.96
2023-04-28T06:43:42.199Z,19.33
2023-04-28T06:46:11.876Z,19.36
2023-04-28T06:48:40.437Z,19.56
2023-04-28T06:51:08.489Z,19.29
2023-04-28T06:53:37.749Z,19.41
2023-04-28T06:56:11.501Z,19.79
2023-04-28T06:58:40.319Z,19.73
2023-04-28T07:01:08.318Z,19.78
2023-04-28T07:03:36.575Z,19.53
2023-04-28T07:06:05.661Z,19.18
2023-04-28T07:08:33.887Z,19.33
2023-04-28T07:11:04.944Z,19.48
2023-04-28T07:13:52.143Z,19.53
2023-04-28T07:16:23.485Z,20.08
2023-04-28T07:18:53.888Z,20.37
2023-04-28T07:21:22.233Z,20.35
2023-04-28T07:24:02.352Z,20.63
2023-04-28T07:26:30.709Z,20.84
2023-04-28T07:28:58.616Z,21.41
2023-04-28T07:31:39.735Z,21.24
2023-04-28T07:34:08.690Z,21.25
2023-04-28T07:36:37.110Z,21.73
2023-04-28T07:39:05.474Z,21.61
2023-04-28T07:41:54.668Z,21.13
2023-04-28T07:44:22.892Z,20.85
2023-04-28T07:46:52.337Z,21.33
2023-04-28T07:49:20.615Z,21.48
2023-04-28T07:51:48.703Z,21.11
2023-04-28T07:54:17.507Z,21.06
2023-04-28T07:56:58.498Z,20.75
2023-04-28T07:59:27.137Z,20.38
2023-04-28T08:01:55.237Z,19.92
2023-04-28T08:04:24.667Z,19.74
2023-04-28T08:06:54.908Z,20.36
2023-04-28T08:09:36.893Z,20.93
2023-04-28T08:12:08.254Z,21.08
2023-04-28T08:14:41.813Z,20.85
2023-04-28T08:17:14.259Z,20.34
2023-04-28T08:19:42.564Z,21.14
2023-04-28T08:22:10.487Z,20.99
2023-04-28T08:24:38.442Z,21.13
2023-04-28T08:27:08.911Z,21.88
2023-04-28T08:29:37.123Z,20.87
2023-04-28T08:32:06.894Z,20.31
2023-04-28T08:34:35.323Z,21.46
2023-04-28T08:37:03.877Z,21.86
2023-04-28T08:39:34.410Z,21.66
2023-04-28T08:42:06.444Z,21.05
2023-04-28T08:44:39.853Z,21.03
2023-04-28T08:47:15.496Z,21.20
2023-04-28T08:49:45.342Z,20.72
2023-04-28T08:52:17.434Z,21.12
2023-04-28T08:54:48.589Z,20.64
2023-04-28T08:57:17.909Z,20.67
2023-04-28T08:59:46.061Z,20.63
2023-04-28T09:02:14.151Z,20.31
2023-04-28T09:04:42.739Z,20.51
2023-04-28T09:07:17.510Z,20.34
2023-04-28T09:09:46.063Z,20.44
2023-04-28T09:12:14.074Z,20.14
2023-04-28T09:14:59.664Z,20.33
2023-04-28T09:17:28.167Z,20.57
2023-04-28T09:19:56.470Z,20.87
2023-04-28T09:22:29.861Z,21.45
2023-04-28T09:24:58.333Z,21.34
2023-04-28T09:27:30.278Z,21.86
2023-04-28T09:29:58.590Z,21.93
2023-04-28T09:32:28.509Z,21.90
2023-04-28T09:34:58.428Z,21.82
2023-04-28T09:37:31.085Z,21.43
2023-04-28T09:40:06.260Z,21.44
2023-04-28T09:42:41.283Z,20.78
2023-04-28T09:45:16.923Z,20.51
2023-04-28T09:47:47.495Z,20.35
2023-04-28T09:50:17.906Z,19.86
2023-04-28T09:52:59.589Z,19.45
2023-04-28T09:55:29.253Z,19.45
2023-04-28T09:58:03.075Z,18.10
2023-04-28T10:00:32.121Z,17.99
2023-04-28T10:03:01.625Z,17.54
2023-04-28T10:05:30.645Z,17.37
2023-04-28T10:08:01.569Z,18.02
2023-04-28T10:10:33.780Z,18.05
2023-04-28T10:13:03.393Z,18.10
2023-04-28T10:15:33.971Z,18.00
2023-04-28T10:18:04.565Z,17.77
2023-04-28T10:20:33.443Z,17.80
2023-04-28T10:23:32.306Z,17.94
2023-04-28T10:26:00.965Z,17.78
2023-04-28T10:28:29.493Z,17.44
2023-04-28T10:31:12.362Z,16.25
2023-04-28T10:36:58.338Z,15.56
2023-04-28T10:39:27.431Z,15.10
2023-04-28T10:41:55.544Z,14.61
2023-04-28T10:44:30.369Z,15.69
2023-04-28T10:47:04.223Z,15.05
2023-04-28T10:50:05.367Z,13.67
2023-04-28T10:52:35.309Z,13.50
2023-04-28T10:55:42.536Z,13.52
2023-04-28T10:58:21.119Z,13.93
2023-04-28T11:00:51.272Z,14.36
2023-04-28T11:04:05.662Z,14.59
2023-04-28T11:06:37.067Z,14.92
2023-04-28T11:09:20.680Z,15.11
2023-04-28T11:12:09.070Z,15.32
2023-04-28T11:14:41.076Z,15.45
2023-04-28T11:17:13.886Z,15.93
2023-04-28T11:19:48.851Z,15.62
2023-04-28T11:22:19.448Z,14.97
2023-04-28T11:25:02.122Z,14.83
2023-04-28T11:27:34.931Z,14.62
2023-04-28T11:30:05.194Z,14.80
2023-04-28T11:32:37.149Z,14.65
2023-04-28T11:35:10.126Z,14.41
2023-04-28T11:38:04.764Z,14.33
2023-04-28T11:40:33.092Z,14.35
2023-04-28T11:43:02.008Z,14.60
2023-04-28T11:45:29.970Z,14.57
2023-04-28T11:48:01.344Z,14.68
2023-04-28T11:50:37.590Z,15.40
2023-04-28T11:53:15.356Z,15.08
2023-04-28T11:55:43.918Z,15.06
2023-04-28T11:58:25.790Z,15.10
2023-04-28T12:01:14.189Z,15.23
2023-04-28T12:03:47.065Z,15.35
2023-04-28T12:06:19.499Z,15.71
2023-04-28T12:08:48.086Z,16.13
2023-04-28T12:11:20.127Z,16.34
2023-04-28T12:14:07.161Z,16.35
2023-04-28T12:16:44.559Z,16.29
2023-04-28T12:19:13.649Z,16.23
2023-04-28T12:21:42.392Z,16.15
2023-04-28T12:24:25.286Z,16.50
2023-04-28T12:26:54.917Z,16.25
2023-04-28T12:29:39.955Z,16.59
2023-04-28T12:32:22.984Z,17.18
2023-04-28T12:34:51.891Z,17.30
2023-04-28T12:37:22.755Z,17.49
2023-04-28T12:39:50.615Z,18.23
2023-04-28T12:42:18.607Z,18.62
2023-04-28T12:44:47.368Z,18.91
2023-04-28T12:47:15.687Z,19.75
2023-04-28T12:49:43.932Z,19.70
2023-04-28T12:52:12.617Z,19.36
2023-04-28T12:54:47.996Z,19.06
2023-04-28T12:57:18.259Z,18.17
2023-04-28T12:59:48.412Z,17.75
2023-04-28T13:02:17.258Z,18.02
2023-04-28T13:04:48.971Z,18.01
2023-04-28T13:07:20.072Z,17.79
2023-04-28T13:09:48.416Z,18.41
2023-04-28T13:12:16.601Z,17.79
2023-04-28T13:14:45.369Z,17.04
2023-04-28T13:17:13.958Z,16.73
2023-04-28T13:19:42.483Z,16.73
2023-04-28T13:22:11.082Z,18.17
2023-04-28T13:24:39.349Z,18.39
2023-04-28T13:27:17.075Z,18.14
2023-04-28T13:30:03.261Z,18.00
2023-04-28T13:32:34.183Z,18.02
2023-04-28T13:35:18.149Z,17.41
2023-04-28T13:37:46.522Z,17.71
2023-04-28T13:40:15.603Z,18.06
2023-04-28T13:42:43.645Z,17.80
2023-04-28T13:45:12.410Z,18.23
2023-04-28T13:47:41.203Z,18.67
2023-04-28T13:50:18.982Z,18.47
2023-04-28T13:52:47.680Z,18.33
2023-04-28T13:55:15.827Z,17.88
2023-04-28T13:57:49.018Z,18.51
2023-04-28T14:00:22.317Z,17.93
2023-04-28T14:03:00.933Z,17.07
2023-04-28T14:05:31.622Z,16.84
2023-04-28T14:08:09.105Z,16.67
2023-04-28T14:10:37.259Z,16.17
2023-04-28T14:13:06.447Z,16.39
2023-04-28T14:15:35.165Z,16.14
2023-04-28T14:18:04.426Z,16.96
2023-04-28T14:20:35.605Z,16.90
2023-04-28T14:23:04.622Z,16.45
2023-04-28T14:25:32.795Z,17.01
2023-04-28T14:28:01.137Z,16.38
2023-04-28T14:30:29.711Z,16.40
2023-04-28T14:33:02.556Z,16.61
2023-04-28T14:35:32.110Z,16.80
2023-04-28T14:38:00.245Z,16.45
2023-04-28T14:40:28.309Z,16.39
2023-04-28T14:42:56.913Z,16.03
2023-04-28T14:45:37.155Z,15.94
2023-04-28T14:48:08.377Z,16.07
2023-04-28T14:50:37.005Z,16.03
2023-04-28T14:53:08.841Z,15.95
2023-04-28T14:55:36.962Z,16.19
2023-04-28T14:58:05.170Z,15.63
2023-04-28T15:00:33.053Z,15.25
2023-04-28T15:03:01.269Z,15.24
2023-04-28T15:05:29.763Z,15.70
2023-04-28T15:07:58.181Z,15.79
2023-04-28T15:10:33.095Z,15.25
2023-04-28T15:13:01.772Z,15.16
2023-04-28T15:15:30.130Z,15.43
2023-04-28T15:18:01.499Z,15.67
2023-04-28T15:20:37.848Z,15.00
2023-04-28T15:23:05.917Z,14.90
2023-04-28T15:25:42.728Z,14.56
2023-04-28T15:28:11.461Z,13.79
2023-04-28T15:30:46.114Z,13.28
2023-04-28T15:33:18.430Z,12.92
2023-04-28T15:35:47.643Z,13.35
2023-04-28T15:38:15.805Z,13.51
2023-04-28T15:40:50.976Z,13.27
2023-04-28T15:43:19.972Z,13.42
2023-04-28T15:45:48.136Z,13.45
2023-04-28T15:48:16.785Z,13.38
2023-04-28T15:50:48.550Z,13.46
2023-04-28T15:53:17.752Z,12.79
2023-04-28T15:55:45.912Z,13.19
2023-04-28T15:58:15.014Z,12.82
2023-04-28T16:00:46.647Z,13.00
2023-04-28T16:03:15.395Z,12.49
2023-04-28T16:05:43.727Z,12.87
2023-04-28T16:08:16.170Z,12.70
2023-04-28T16:10:44.422Z,12.38
2023-04-28T16:13:13.248Z,12.21
2023-04-28T16:15:42.230Z,11.82
2023-04-28T16:18:10.834Z,11.76
2023-04-28T16:20:39.136Z,11.93
2023-04-28T16:23:08.248Z,11.96
2023-04-28T16:25:36.865Z,12.21
2023-04-28T16:28:04.989Z,12.38
2023-04-28T16:30:33.815Z,12.04
2023-04-28T16:33:02.212Z,11.87
2023-04-28T16:35:30.441Z,11.84
2023-04-28T16:37:58.405Z,11.60
2023-04-28T16:40:26.961Z,11.67
2023-04-28T16:42:58.022Z,11.89
2023-04-28T16:45:26.347Z,11.80
2023-04-28T16:47:54.591Z,11.59
2023-04-28T16:50:22.647Z,11.46
2023-04-28T16:52:51.111Z,11.80
2023-04-28T16:55:19.465Z,11.70
2023-04-28T16:57:49.419Z,11.39
2023-04-28T17:00:18.680Z,11.22
2023-04-28T17:02:47.342Z,11.18
2023-04-28T17:05:22.665Z,11.01
2023-04-28T17:07:51.197Z,10.89
2023-04-28T17:10:20.199Z,10.80
2023-04-28T17:12:48.660Z,10.85
2023-04-28T17:15:18.098Z,10.83
2023-04-28T17:17:51.272Z,10.59
2023-04-28T17:20:20.491Z,10.49
2023-04-28T17:22:50.630Z,10.33
2023-04-28T17:25:18.827Z,10.24
2023-04-28T17:27:48.760Z,10.32
2023-04-28T17:30:17.270Z,10.30
2023-04-28T17:32:45.416Z,10.18
2023-04-28T17:35:13.932Z,10.12
2023-04-28T17:37:42.330Z,10.22
2023-04-28T17:40:10.916Z,10.27
2023-04-28T17:42:39.291Z,10.19
2023-04-28T17:45:11.258Z,10.81
2023-04-28T17:47:39.995Z,10.46
2023-04-28T17:50:08.911Z,10.24
2023-04-28T17:52:37.390Z,10.13
2023-04-28T17:55:06.679Z,9.82
2023-04-28T17:57:35.004Z,9.79
2023-04-28T18:00:03.086Z,9.76
2023-04-28T18:02:40.188Z,9.60
2023-04-28T18:05:09.479Z,9.56
2023-04-28T18:07:38.149Z,9.56
2023-04-28T18:10:06.527Z,9.50
2023-04-28T18:12:38.158Z,9.57
2023-04-28T18:15:08.734Z,9.63
2023-04-28T18:17:37.679Z,9.39
2023-04-28T18:20:09.182Z,9.35
2023-04-28T18:22:38.141Z,9.32
2023-04-28T18:25:06.723Z,9.24
2023-04-28T18:27:34.763Z,9.35
2023-04-28T18:30:04.969Z,9.40
2023-04-28T18:32:34.556Z,9.73
2023-04-28T18:35:03.195Z,10.11
2023-04-28T18:37:32.313Z,9.60
2023-04-28T18:40:10.692Z,9.19
2023-04-28T18:42:41.266Z,9.12
2023-04-28T18:47:41.714Z,9.03
2023-04-28T18:50:10.946Z,8.91
2023-04-28T18:52:39.349Z,8.82
2023-04-28T18:55:10.509Z,8.88
2023-04-28T18:57:38.874Z,9.27
2023-04-28T19:00:09.899Z,9.06
2023-04-28T19:02:38.392Z,8.81
2023-04-28T19:05:07.861Z,8.49
2023-04-28T19:07:36.376Z,8.27
2023-04-28T19:10:05.576Z,8.37
2023-04-28T19:12:33.930Z,8.32
2023-04-28T19:15:02.543Z,8.26
2023-04-28T19:17:32.397Z,8.12
2023-04-28T19:20:00.520Z,8.10
2023-04-28T19:22:44.815Z,8.20
2023-04-28T19:25:17.804Z,8.02
2023-04-28T19:27:49.034Z,8.01
2023-04-28T19:30:17.720Z,7.89
2023-04-28T19:32:48.484Z,7.83
2023-04-28T19:35:17.146Z,8.11
2023-04-28T19:37:45.519Z,8.02
2023-04-28T19:40:16.804Z,7.76
2023-04-28T19:42:45.614Z,7.83
2023-04-28T19:45:14.489Z,8.05
2023-04-28T19:47:42.571Z,7.76
2023-04-28T19:50:11.936Z,7.76
2023-04-28T19:52:40.146Z,7.73
2023-04-28T19:55:08.543Z,7.66
2023-04-28T19:57:37.981Z,7.62
2023-04-28T20:00:06.430Z,7.69
2023-04-28T20:02:36.431Z,7.60
2023-04-28T20:05:05.286Z,7.59
2023-04-28T20:07:34.173Z,7.61
2023-04-28T20:10:02.158Z,7.55
2023-04-28T20:12:31.820Z,7.57
2023-04-28T20:15:00.213Z,7.96
2023-04-28T20:17:28.427Z,8.09
2023-04-28T20:22:42.595Z,7.96
2023-04-28T20:25:11.222Z,7.76
2023-04-28T20:27:39.340Z,7.83
2023-04-28T20:30:08.403Z,7.81
2023-04-28T20:32:37.221Z,7.87
2023-04-28T20:35:06.544Z,7.60
2023-04-28T20:37:34.517Z,7.42
2023-04-28T20:40:03.460Z,7.38
2023-04-28T20:42:33.599Z,7.45
2023-04-28T20:45:01.573Z,7.37
2023-04-28T20:47:32.651Z,7.63
2023-04-28T20:50:00.893Z,7.38
2023-04-28T20:52:31.871Z,7.33
2023-04-28T20:55:00.738Z,7.61
2023-04-28T20:57:29.171Z,7.32
2023-04-28T20:59:57.397Z,6.94
2023-04-28T21:02:25.856Z,7.02
2023-04-28T21:04:54.508Z,6.94
2023-04-28T21:07:22.903Z,6.89
2023-04-28T21:09:51.403Z,7.00
2023-04-28T21:12:19.569Z,7.21
2023-04-28T21:14:47.852Z,7.17
2023-04-28T21:17:15.756Z,7.09
2023-04-28T21:19:44.141Z,7.27
2023-04-28T21:22:12.927Z,7.01
2023-04-28T21:24:41.069Z,6.95
2023-04-28T21:27:09.077Z,6.80
2023-04-28T21:29:37.375Z,6.66
2023-04-28T21:32:05.406Z,6.52
2023-04-28T21:34:33.696Z,6.63
2023-04-28T21:37:02.544Z,6.76
2023-04-28T21:39:30.617Z,6.70
2023-04-28T21:42:01.220Z,6.70
2023-04-28T21:44:29.624Z,6.92
2023-04-28T21:46:57.674Z,6.80
2023-04-28T21:49:25.665Z,6.55
2023-04-28T21:51:54.108Z,6.54
2023-04-28T21:54:22.215Z,6.82
2023-04-28T21:56:50.397Z,6.58
2023-04-28T21:59:18.781Z,6.27
2023-04-28T22:01:46.734Z,6.23
2023-04-28T22:04:15.703Z,6.22
2023-04-28T22:06:45.492Z,6.20
2023-04-28T22:09:13.973Z,6.31
2023-04-28T22:11:42.959Z,6.24
2023-04-28T22:14:15.251Z,6.57
2023-04-28T22:16:50.186Z,6.46
2023-04-28T22:19:18.169Z,6.22
2023-04-28T22:21:46.164Z,6.14
2023-04-28T22:24:14.890Z,6.00
2023-04-28T22:26:43.751Z,5.93
2023-04-28T22:29:12.585Z,6.37
2023-04-28T22:31:40.907Z,5.96
2023-04-28T22:34:10.395Z,5.96
2023-04-28T22:36:38.302Z,5.74
2023-04-28T22:39:06.800Z,5.91
2023-04-28T22:41:34.817Z,5.85
2023-04-28T22:44:02.921Z,5.74
2023-04-28T22:46:31.579Z,5.77
2023-04-28T22:48:59.575Z,6.09
2023-04-28T22:51:27.624Z,5.81
2023-04-28T22:53:56.224Z,6.35
2023-04-28T22:56:24.339Z,5.79
2023-04-28T22:58:52.302Z,5.77
2023-04-28T23:01:20.597Z,5.85
2023-04-28T23:03:51.055Z,5.99
2023-04-28T23:06:19.310Z,5.81
2023-04-28T23:08:47.535Z,5.77
2023-04-28T23:11:15.480Z,5.73
2023-04-28T23:13:43.748Z,5.74
2023-04-28T23:16:12.169Z,5.69
2023-04-28T23:18:40.291Z,5.76
2023-04-28T23:21:08.449Z,5.70
2023-04-28T23:23:37.048Z,5.49
2023-04-28T23:26:05.802Z,5.56
2023-04-28T23:28:33.768Z,5.86
2023-04-28T23:31:02.731Z,5.49
2023-04-28T23:33:30.773Z,5.87
2023-04-28T23:35:58.758Z,5.36
2023-04-28T23:38:27.444Z,5.30
2023-04-28T23:40:55.471Z,5.45
2023-04-28T23:43:23.501Z,5.37
2023-04-28T23:45:52.107Z,5.27
2023-04-28T23:48:20.166Z,5.25
2023-04-28T23:50:48.425Z,5.10
2023-04-28T23:53:16.635Z,5.09
2023-04-28T23:55:44.961Z,4.97
2023-04-28T23:58:12.913Z,5.07
